EST,Max TemperatureF,Mean TemperatureF,Min TemperatureF,Max Dew PointF,MeanDew PointF,Min DewpointF,Max Humidity, Mean Humidity, Min Humidity, Max Sea Level PressureIn, Mean Sea Level PressureIn, Min Sea Level PressureIn, Max VisibilityMiles, Mean VisibilityMiles, Min VisibilityMiles, Max Wind SpeedMPH, Mean Wind SpeedMPH, Max Gust SpeedMPH,PrecipitationIn, CloudCover, Events, WindDirDegrees
2010-12-1,53,44,33,52,29,18,94,61,33,30.18,29.97,29.75,10,10,8,22,13,32,0.25,2,Rain,246
2010-12-2,48,38,27,24,19,14,81,50,25,30.25,30.20,30.17,10,10,10,8,3,,0.00,0,,277
2010-12-3,55,42,28,31,26,23,82,57,35,30.17,30.10,30.02,10,10,10,10,2,,0.00,0,,285
2010-12-4,42,40,37,39,34,26,100,80,57,30.13,29.91,29.79,10,6,0,9,4,,0.01,6,Fog-Rain,244
2010-12-5,43,36,28,34,23,12,82,61,32,30.13,30.01,29.86,10,10,10,15,5,24,0.00,0,,5
2010-12-6,41,33,23,17,11,5,69,46,25,30.12,30.04,29.95,10,10,10,12,3,,0.00,0,,334
2010-12-7,37,28,19,13,9,5,71,49,28,30.14,30.03,29.96,10,10,10,16,4,21,0.00,0,,6
2010-12-8,32,26,19,14,11,8,68,51,40,30.23,30.18,30.13,10,10,10,10,5,,0.00,0,,296
2010-12-9,42,33,24,16,12,11,60,44,28,30.38,30.31,30.24,10,10,10,7,2,,0.00,0,,91
2010-12-10,48,39,30,21,15,11,67,42,24,30.34,30.28,30.23,10,10,10,7,1,,0.00,0,,215
2010-12-11,50,42,34,22,18,14,55,40,24,30.23,30.11,29.87,10,10,10,7,3,,0.00,1,,62
2010-12-12,43,35,27,38,30,5,100,77,38,29.80,29.58,29.43,10,7,2,25,7,33,0.36,7,Rain,320
2010-12-13,33,26,19,13,7,0,65,47,28,29.95,29.75,29.57,10,10,10,20,8,26,0.07,0,,299
2010-12-14,57,34,12,45,4,-5,71,44,19,30.09,30.04,29.84,10,10,10,18,4,26,0.00,0,,352
2010-12-15,35,26,18,10,6,2,65,39,26,30.15,30.08,29.98,10,10,10,10,5,,0.00,4,,252
2010-12-16,51,40,30,50,34,24,97,90,76,29.99,29.84,29.71,10,4,0,9,7,,0.09,8,Fog,225
2010-12-17,54,46,37,48,37,26,100,75,50,30.08,29.96,29.80,10,9,0,12,5,,0.00,2,Fog,1
2010-12-18,39,37,35,34,31,29,87,78,70,30.11,30.03,29.98,10,9,8,13,8,16,0.02,7,,54
2010-12-19,48,39,30,30,20,11,89,53,26,30.06,30.01,29.97,10,9,5,16,7,21,0.00,1,,17
2010-12-20,46,36,27,26,19,14,69,50,35,30.18,30.13,30.06,10,10,10,12,4,,0.00,1,,356
2010-12-21,48,42,37,43,33,23,93,70,51,30.13,30.06,29.99,10,8,2,10,3,,0.00,8,,224
2010-12-22,64,52,37,48,41,24,100,79,41,30.09,29.93,29.86,10,4,0,18,7,31,0.00,4,Fog,291
2010-12-23,45,39,32,22,17,10,59,46,24,30.27,30.20,30.10,10,10,10,23,13,32,0.00,0,,351
2010-12-24,46,35,24,22,18,14,75,49,31,30.26,30.18,30.08,10,10,10,7,4,,0.00,1,,247
2010-12-25,41,36,32,32,29,21,96,80,51,30.08,29.92,29.80,10,4,1,10,2,,0.22,7,Rain-Snow,48
2010-12-26,33,30,28,30,22,11,89,71,47,29.92,29.81,29.73,10,7,2,14,10,21,0.00,8,Rain-Snow,353
2010-12-27,41,33,25,15,11,7,58,44,25,30.22,30.06,29.91,10,10,10,10,7,34,0.00,0,,326
2010-12-28,48,36,23,19,14,10,68,46,22,30.26,30.19,30.13,10,10,10,7,2,,0.00,0,,244
2010-12-29,48,38,27,21,18,14,69,47,26,30.18,30.14,30.11,10,10,10,6,1,,0.00,0,,317
2010-12-30,46,39,32,28,22,17,70,51,33,30.28,30.22,30.16,10,10,10,7,1,,0.00,4,,48
2010-12-31,55,48,41,40,32,23,76,55,43,30.30,30.25,30.22,10,10,9,7,3,,0.00,6,,35